Time;durP1;ratioP1;P1;durP2;ratioP2;P2;SDS_P1;SDS_P2;PMS_P1;PMS_P2;Temp;Humidity;BMP_temperature;BMP_pressure;BME280_temperature;BME280_humidity;BME280_pressure;Samples;Min_cycle;Max_cycle;Signal;HPM_P1;HPM_P2
2024/03/22 00:02:13;;;;;;;7.78;3.80;;;;;;;9.70;59.12;100596.66;10413670;28;20041;-77
2024/03/22 00:07:14;;;;;;;6.82;4.47;;;;;;;9.42;59.44;100600.47;10428098;28;20075;-77
2024/03/22 00:12:15;;;;;;;7.88;4.65;;;;;;;9.17;59.78;100599.84;10427645;28;20061;-77
2024/03/22 00:17:16;;;;;;;7.75;4.22;;;;;;;9.11;60.43;100589.69;10396586;28;20056;-77
2024/03/22 00:22:17;;;;;;;10.00;3.83;;;;;;;9.08;60.38;100588.94;10428575;28;20464;-77
2024/03/22 00:27:18;;;;;;;6.50;4.13;;;;;;;9.09;60.21;100577.63;10428253;28;20143;-77
2024/03/22 00:32:19;;;;;;;13.07;4.00;;;;;;;9.08;60.40;100581.97;10395654;28;20458;-76
2024/03/22 00:37:21;;;;;;;8.15;4.88;;;;;;;9.01;60.44;100579.72;10406309;28;20588;-77
2024/03/22 00:42:22;;;;;;;8.90;3.92;;;;;;;8.88;60.63;100575.91;10406687;28;20076;-77
2024/03/22 00:47:23;;;;;;;8.52;4.40;;;;;;;8.78;60.80;100572.88;10406918;28;20057;-77
2024/03/22 00:52:24;;;;;;;15.05;5.32;;;;;;;8.68;61.04;100561.97;10406360;28;20123;-77
2024/03/22 00:57:25;;;;;;;8.88;3.75;;;;;;;8.65;60.99;100553.41;10375263;28;20056;-81
2024/03/22 01:02:26;;;;;;;12.13;4.78;;;;;;;8.61;61.01;100554.44;10398088;28;20077;-81
2024/03/22 01:07:27;;;;;;;8.25;4.20;;;;;;;8.55;61.52;100562.53;10407126;28;20061;-81
2024/03/22 01:12:28;;;;;;;9.10;4.78;;;;;;;8.52;61.25;100555.72;10392012;28;20064;-82
2024/03/22 01:17:30;;;;;;;10.82;5.45;;;;;;;8.48;61.16;100550.69;10381485;28;20883;-81
2024/03/22 01:22:31;;;;;;;7.30;3.97;;;;;;;8.43;61.39;100550.00;10415376;28;20060;-81
2024/03/22 01:27:32;;;;;;;14.52;5.47;;;;;;;8.26;61.54;100539.44;10420539;28;20539;-81
2024/03/22 01:32:33;;;;;;;7.40;3.92;;;;;;;8.10;61.88;100536.59;10398714;28;20076;-81
2024/03/22 01:37:34;;;;;;;8.02;4.22;;;;;;;8.11;61.77;100529.63;10429902;28;20509;-81
2024/03/22 01:42:35;;;;;;;11.15;5.18;;;;;;;8.04;61.97;100532.44;10439551;28;20083;-81
2024/03/22 01:47:36;;;;;;;7.15;4.10;;;;;;;7.98;62.36;100530.09;10454932;28;20955;-81
2024/03/22 01:52:39;;;;;;;9.75;4.00;;;;;;;8.06;62.14;100521.94;10422048;28;20705;-81
2024/03/22 01:57:40;;;;;;;10.00;4.40;;;;;;;8.11;61.88;100516.59;10438844;28;20088;-81
2024/03/22 02:02:45;;;;;;;7.03;4.22;;;;;;;7.80;62.14;100522.13;10438760;28;20139;-81
2024/03/22 02:07:46;;;;;;;7.72;4.40;;;;;;;7.82;62.62;100526.38;10454090;28;20159;-81
2024/03/22 02:12:47;;;;;;;9.52;4.90;;;;;;;7.93;62.38;100521.63;10436874;28;20143;-81
2024/03/22 02:17:48;;;;;;;7.55;3.63;;;;;;;8.06;62.31;100510.72;10437898;28;20094;-81
2024/03/22 02:22:49;;;;;;;7.07;3.85;;;;;;;8.14;62.16;100500.84;10421655;28;20466;-81
2024/03/22 02:27:50;;;;;;;7.72;4.00;;;;;;;8.06;62.06;100495.09;10453327;28;20131;-81
2024/03/22 02:32:51;;;;;;;8.10;3.67;;;;;;;7.94;62.14;100486.84;10435341;28;20052;-81
2024/03/22 02:37:52;;;;;;;9.55;4.75;;;;;;;7.71;62.40;100489.50;10401019;28;20054;-81
2024/03/22 02:42:53;;;;;;;11.85;4.45;;;;;;;7.56;62.57;100479.69;10392641;28;20061;-81
2024/03/22 02:47:54;;;;;;;7.88;4.05;;;;;;;7.58;63.06;100472.69;10391788;28;20057;-82
2024/03/22 02:52:55;;;;;;;8.55;4.10;;;;;;;7.66;62.60;100467.16;10390684;28;20060;-81
2024/03/22 02:57:57;;;;;;;12.00;3.97;;;;;;;7.71;62.67;100457.44;10358125;28;20148;-81
2024/03/22 03:02:59;;;;;;;13.95;6.13;;;;;;;7.81;62.93;100448.34;10374324;28;20503;-81
2024/03/22 03:08:00;;;;;;;17.25;4.85;;;;;;;7.91;62.44;100439.25;10391102;28;20613;-81
2024/03/22 03:13:01;;;;;;;9.57;4.13;;;;;;;7.95;62.63;100441.66;10381613;28;20598;-81
2024/03/22 03:18:02;;;;;;;9.82;5.50;;;;;;;7.94;62.63;100431.28;10397028;28;21087;-81
2024/03/22 03:23:03;;;;;;;8.18;4.05;;;;;;;7.95;62.61;100433.84;10388994;28;20053;-81
2024/03/22 03:28:06;;;;;;;9.27;4.25;;;;;;;7.94;62.54;100421.72;10373951;28;20103;-81
2024/03/22 03:33:07;;;;;;;10.95;3.83;;;;;;;7.78;62.68;100419.81;10372888;28;20100;-81
2024/03/22 03:38:08;;;;;;;11.32;4.65;;;;;;;7.76;62.66;100408.59;10385354;28;20438;-81
2024/03/22 03:43:09;;;;;;;16.58;4.35;;;;;;;7.78;62.65;100405.03;10414998;28;20624;-81
2024/03/22 03:48:10;;;;;;;14.20;4.82;;;;;;;7.78;62.65;100405.03;10413913;28;20053;-81
2024/03/22 03:53:11;;;;;;;14.77;5.13;;;;;;;7.74;62.62;100400.00;10396126;28;20091;-81
2024/03/22 03:58:12;;;;;;;10.07;4.82;;;;;;;7.73;62.65;100391.34;10429547;28;20052;-81
2024/03/22 04:03:13;;;;;;;9.20;4.32;;;;;;;7.81;62.65;100388.44;10398821;28;20084;-81
2024/03/22 04:08:14;;;;;;;15.10;5.85;;;;;;;7.90;62.49;100382.84;10398488;28;20151;-81
2024/03/22 04:13:15;;;;;;;13.85;5.70;;;;;;;7.97;62.45;100384.28;10397075;28;20055;-81
2024/03/22 04:18:17;;;;;;;14.57;4.50;;;;;;;7.97;62.43;100392.97;10412229;28;20085;-81
2024/03/22 04:23:18;;;;;;;9.95;4.50;;;;;;;7.93;62.47;100383.59;10397634;28;20132;-81
2024/03/22 04:28:19;;;;;;;12.73;4.57;;;;;;;8.01;62.60;100386.72;10412450;28;20079;-81
2024/03/22 04:33:20;;;;;;;10.27;4.28;;;;;;;7.95;62.53;100384.38;10422127;28;20059;-81
2024/03/22 04:38:21;;;;;;;11.75;5.30;;;;;;;7.82;62.83;100377.97;10395557;28;20063;-81
2024/03/22 04:43:25;;;;;;;9.40;4.28;;;;;;;7.86;63.05;100383.88;10414631;28;20597;-81
2024/03/22 04:48:26;;;;;;;15.38;5.55;;;;;;;8.01;62.82;100375.44;10444578;28;20524;-82
2024/03/22 04:53:27;;;;;;;7.95;4.00;;;;;;;8.05;62.65;100363.97;10419347;28;20128;-81
2024/03/22 04:58:28;;;;;;;9.50;4.18;;;;;;;8.04;62.62;100372.69;10450497;28;20080;-82
2024/03/22 05:03:29;;;;;;;9.93;4.75;;;;;;;8.09;62.59;100362.09;10428973;28;20484;-82
2024/03/22 05:08:30;;;;;;;11.18;4.57;;;;;;;8.13;62.42;100367.13;10425341;28;20156;-81
2024/03/22 05:13:31;;;;;;;7.75;3.30;;;;;;;8.19;62.30;100371.22;10420296;28;20063;-81
2024/03/22 05:18:32;;;;;;;12.35;4.32;;;;;;;8.22;62.30;100365.91;10425323;28;20532;-81
2024/03/22 05:23:33;;;;;;;13.82;4.75;;;;;;;8.32;62.13;100361.97;10453139;28;20175;-81
2024/03/22 05:28:35;;;;;;;9.30;4.55;;;;;;;8.38;62.09;100357.34;10436373;28;20426;-81
2024/03/22 05:33:36;;;;;;;7.47;3.55;;;;;;;8.40;62.21;100352.06;10436649;28;20110;-81
2024/03/22 05:38:36;;;;;;;9.98;3.28;;;;;;;8.42;62.10;100342.41;10400761;28;20059;-82
2024/03/22 05:43:37;;;;;;;6.88;4.32;;;;;;;8.46;61.86;100342.22;10418975;28;20057;-82
2024/03/22 05:48:39;;;;;;;8.63;4.25;;;;;;;8.37;61.69;100339.16;10425810;28;20114;-82
2024/03/22 05:53:40;;;;;;;10.00;4.40;;;;;;;8.41;62.22;100336.34;10434289;28;20086;-82
2024/03/22 05:58:41;;;;;;;10.43;4.10;;;;;;;8.48;62.09;100339.53;10418265;28;20414;-82
2024/03/22 06:03:42;;;;;;;6.50;3.63;;;;;;;8.58;62.13;100339.06;10419098;28;20045;-82
2024/03/22 06:08:45;;;;;;;10.73;3.97;;;;;;;8.65;62.24;100331.78;10434283;28;20079;-81
2024/03/22 06:13:46;;;;;;;9.02;4.13;;;;;;;8.72;62.22;100334.06;10434174;28;20135;-82
2024/03/22 06:18:48;;;;;;;10.43;4.78;;;;;;;8.76;62.16;100326.94;10450477;28;20140;-82
2024/03/22 06:23:50;;;;;;;8.25;4.40;;;;;;;8.74;62.22;100313.97;10433520;28;20114;-81
2024/03/22 06:28:51;;;;;;;9.32;4.47;;;;;;;8.83;61.95;100316.16;10400007;28;20064;-82
2024/03/22 06:33:53;;;;;;;14.25;4.97;;;;;;;8.94;62.09;100301.75;10415856;28;20139;-82
2024/03/22 06:38:54;;;;;;;10.38;4.03;;;;;;;9.11;61.93;100294.84;10400696;28;20147;-82
2024/03/22 06:43:55;;;;;;;8.63;4.40;;;;;;;9.20;61.62;100288.34;10400610;28;20148;-82
2024/03/22 06:48:57;;;;;;;9.93;4.97;;;;;;;9.07;61.91;100290.69;10416386;28;20077;-82
2024/03/22 06:53:58;;;;;;;8.95;4.95;;;;;;;9.13;61.61;100287.78;10434168;28;20155;-82
2024/03/22 06:58:59;;;;;;;9.63;4.47;;;;;;;9.12;61.77;100283.47;10433231;28;20679;-82
2024/03/22 07:04:00;;;;;;;12.18;5.45;;;;;;;9.29;61.78;100277.44;10431501;28;20113;-82
2024/03/22 07:09:02;;;;;;;9.93;4.90;;;;;;;9.53;61.53;100274.47;10449294;28;20057;-81
2024/03/22 07:14:03;;;;;;;10.13;5.38;;;;;;;9.63;61.56;100275.69;10430583;28;20091;-82
2024/03/22 07:19:04;;;;;;;28.13;10.70;;;;;;;9.77;61.22;100268.97;10431385;28;20406;-82
2024/03/22 07:24:05;;;;;;;10.80;5.47;;;;;;;9.85;61.21;100267.63;10439540;28;20057;-82
2024/03/22 07:29:06;;;;;;;8.48;4.80;;;;;;;10.01;61.25;100259.84;10424068;28;20143;-82
2024/03/22 07:34:07;;;;;;;10.75;5.13;;;;;;;10.37;60.94;100255.28;10438474;28;20958;-82
2024/03/22 07:39:09;;;;;;;14.20;6.13;;;;;;;10.41;60.47;100257.66;10431528;28;20052;-82
2024/03/22 07:44:11;;;;;;;27.05;10.48;;;;;;;10.53;60.74;100253.53;10407411;28;20143;-82
2024/03/22 07:49:12;;;;;;;18.63;9.88;;;;;;;10.86;60.28;100249.06;10416810;28;20094;-82
2024/03/22 07:54:13;;;;;;;18.15;8.70;;;;;;;11.34;59.78;100242.84;10407686;28;20103;-82
2024/03/22 07:59:15;;;;;;;16.25;7.80;;;;;;;11.84;59.26;100226.78;10416759;28;20057;-81
2024/03/22 08:04:16;;;;;;;21.58;8.82;;;;;;;12.39;57.97;100214.63;10414077;28;20175;-82
2024/03/22 08:09:18;;;;;;;20.00;8.13;;;;;;;12.61;57.91;100216.72;10445417;28;20083;-82
2024/03/22 08:14:19;;;;;;;25.58;12.63;;;;;;;13.07;57.28;100206.75;10438004;28;20060;-82
2024/03/22 08:19:20;;;;;;;13.10;5.32;;;;;;;13.87;56.16;100194.25;10429064;28;20045;-82
2024/03/22 08:24:21;;;;;;;10.13;4.70;;;;;;;14.20;55.49;100196.31;10413647;28;20127;-82
2024/03/22 08:29:22;;;;;;;5.10;3.05;;;;;;;14.39;55.52;100178.28;10427484;28;20087;-82
2024/03/22 08:34:48;;;;;;;4.63;2.90;;;;;;;14.61;53.44;100172.34;10427008;28;20056;-82
2024/03/22 08:39:49;;;;;;;5.10;2.28;;;;;;;14.49;55.05;100172.25;10427528;28;20496;-82
2024/03/22 08:44:50;;;;;;;5.30;2.42;;;;;;;14.27;55.01;100161.56;10454019;28;20052;-82
2024/03/22 08:49:51;;;;;;;5.72;2.50;;;;;;;14.34;55.04;100156.72;10412346;28;20140;-82
2024/03/22 08:54:53;;;;;;;4.35;2.20;;;;;;;14.71;54.05;100136.50;10413125;28;20144;-82
2024/03/22 08:59:54;;;;;;;5.93;2.47;;;;;;;15.10;53.00;100134.38;10395359;28;20091;-82
2024/03/22 09:04:55;;;;;;;4.07;2.25;;;;;;;15.61;51.43;100121.69;10412851;28;20096;-82
2024/03/22 09:09:56;;;;;;;3.75;1.90;;;;;;;16.33;50.09;100119.47;10410814;28;20106;-81
2024/03/22 09:14:58;;;;;;;5.00;2.05;;;;;;;16.61;49.11;100108.41;10412097;28;20513;-82
2024/03/22 09:19:59;;;;;;;5.82;3.00;;;;;;;16.59;49.11;100110.34;10410454;28;20143;-82
2024/03/22 09:25:00;;;;;;;3.97;2.25;;;;;;;16.27;49.57;100110.25;10412657;28;20084;-81
2024/03/22 09:30:03;;;;;;;6.25;3.08;;;;;;;16.13;49.19;100092.03;10411277;28;20053;-82
2024/03/22 09:35:05;;;;;;;6.13;3.05;;;;;;;16.26;48.89;100095.41;10412820;28;20065;-82
2024/03/22 09:40:07;;;;;;;6.72;3.78;;;;;;;16.19;48.41;100079.22;10419904;28;20140;-81
2024/03/22 09:45:10;;;;;;;7.55;3.08;;;;;;;15.90;48.67;100075.41;10416594;28;20052;-81
2024/03/22 09:50:12;;;;;;;7.25;4.13;;;;;;;16.23;48.12;100069.22;10426191;28;20088;-81
2024/03/22 09:55:14;;;;;;;7.72;3.78;;;;;;;16.42;47.65;100056.22;10419183;28;20052;-81
2024/03/22 10:00:18;;;;;;;7.70;4.18;;;;;;;16.57;46.31;100056.81;10426500;28;20125;-81
2024/03/22 10:05:19;;;;;;;8.57;3.25;;;;;;;16.39;47.39;100045.91;10417940;28;20049;-81
2024/03/22 10:10:20;;;;;;;4.43;2.90;;;;;;;16.19;47.99;100050.19;10451502;28;20056;-81
2024/03/22 10:15:23;;;;;;;8.50;4.10;;;;;;;16.29;47.32;100042.34;10417436;28;20207;-81
2024/03/22 10:20:24;;;;;;;6.18;3.22;;;;;;;16.94;46.21;100023.69;10417807;28;20191;-81
2024/03/22 10:25:29;;;;;;;7.55;3.42;;;;;;;17.10;45.36;100032.00;10402752;28;20831;-82
2024/03/22 10:30:33;;;;;;;6.45;2.95;;;;;;;17.54;45.76;100017.66;10399701;28;20491;-81
2024/03/22 10:35:36;;;;;;;5.40;2.97;;;;;;;17.65;45.21;100012.25;10425729;28;20057;-82
2024/03/22 10:40:37;;;;;;;6.40;3.20;;;;;;;17.33;45.70;100004.47;10440752;28;20083;-83
2024/03/22 10:45:39;;;;;;;5.90;2.90;;;;;;;17.58;44.98;100000.53;10447815;28;20105;-82
2024/03/22 10:50:42;;;;;;;6.80;3.03;;;;;;;18.09;43.78;99997.72;10399635;28;20496;-82
2024/03/22 10:55:46;;;;;;;5.60;2.90;;;;;;;18.01;43.47;99985.19;10441251;28;21128;-82
2024/03/22 11:00:47;;;;;;;7.18;3.35;;;;;;;17.99;43.22;99978.34;10449274;28;20060;-82
2024/03/22 11:05:58;;;;;;;5.18;2.83;;;;;;;18.26;41.71;99975.91;10454577;28;20110;-82
2024/03/22 11:11:12;;;;;;;7.40;3.40;;;;;;;17.84;41.03;99978.75;10408392;28;20140;-82
2024/03/22 11:16:14;;;;;;;6.45;2.90;;;;;;;18.13;42.08;99970.84;10405031;28;20136;-82
2024/03/22 11:21:15;;;;;;;8.88;3.00;;;;;;;17.87;41.50;99966.22;10439295;28;20148;-83
2024/03/22 11:26:16;;;;;;;7.13;3.15;;;;;;;17.92;42.32;99956.06;10415314;28;20095;-82
2024/03/22 11:31:17;;;;;;;5.32;2.50;;;;;;;18.03;41.56;99945.34;10415361;28;20623;-82
2024/03/22 11:36:19;;;;;;;6.10;3.00;;;;;;;18.30;40.85;99940.25;10438343;28;20057;-82
2024/03/22 11:41:27;;;;;;;5.57;2.80;;;;;;;18.45;40.86;99930.88;10439052;28;20135;-82
2024/03/22 11:46:29;;;;;;;5.13;2.47;;;;;;;18.49;41.54;99926.97;10398181;28;20494;-82
2024/03/22 11:51:30;;;;;;;7.80;2.70;;;;;;;18.27;39.83;99927.25;10430647;28;20130;-82
2024/03/22 11:56:31;;;;;;;4.90;2.50;;;;;;;18.27;40.91;99919.31;10415098;28;20055;-83
2024/03/22 12:01:33;;;;;;;4.53;2.50;;;;;;;18.47;40.48;99908.56;10414765;28;20041;-83
2024/03/22 12:06:34;;;;;;;8.32;3.03;;;;;;;17.99;39.89;99909.56;10445654;28;20052;-82
2024/03/22 12:11:35;;;;;;;6.85;2.83;;;;;;;17.70;40.96;99904.25;10399205;28;20182;-82
2024/03/22 12:16:37;;;;;;;6.57;2.55;;;;;;;17.71;41.36;99901.44;10430017;28;20128;-83
2024/03/22 12:21:38;;;;;;;6.80;3.08;;;;;;;17.49;41.84;99883.19;10414198;28;20049;-83
2024/03/22 12:26:40;;;;;;;6.00;2.78;;;;;;;17.52;41.73;99890.84;10449145;28;20048;-83
2024/03/22 12:31:41;;;;;;;5.25;2.90;;;;;;;17.35;41.61;99886.22;10430083;28;20036;-82
2024/03/22 12:36:43;;;;;;;7.80;3.58;;;;;;;17.59;41.86;99885.84;10445183;28;20098;-82
2024/03/22 12:41:44;;;;;;;8.40;3.70;;;;;;;17.42;42.23;99879.44;10398212;28;20163;-82
2024/03/22 12:46:45;;;;;;;5.68;2.72;;;;;;;17.30;42.52;99869.06;10431926;28;20072;-83
2024/03/22 12:51:46;;;;;;;5.18;2.65;;;;;;;17.44;42.88;99866.91;10411796;28;20044;-82
2024/03/22 12:56:48;;;;;;;8.57;2.95;;;;;;;17.14;42.77;99869.56;10426706;28;20604;-82
2024/03/22 13:01:49;;;;;;;6.32;2.90;;;;;;;16.86;43.44;99854.44;10414711;28;20152;-82
2024/03/22 13:06:50;;;;;;;8.35;3.03;;;;;;;16.79;43.97;99848.03;10446041;28;20071;-82
2024/03/22 13:11:51;;;;;;;5.45;2.55;;;;;;;17.04;43.48;99840.47;10435640;28;20175;-83
2024/03/22 13:16:53;;;;;;;4.68;2.50;;;;;;;16.93;43.31;99834.47;10410699;28;20052;-82
2024/03/22 13:21:55;;;;;;;4.38;2.80;;;;;;;16.89;43.28;99822.50;10405369;28;20056;-82
2024/03/22 13:26:56;;;;;;;4.15;2.22;;;;;;;16.83;43.22;99812.47;10436931;28;20044;-82
2024/03/22 13:31:57;;;;;;;8.23;2.22;;;;;;;17.08;42.86;99806.69;10421148;28;20123;-83
2024/03/22 13:36:58;;;;;;;4.07;2.22;;;;;;;16.88;42.68;99794.41;10434192;28;20789;-83
2024/03/22 13:42:01;;;;;;;4.65;1.98;;;;;;;16.84;42.57;99793.84;10421669;28;20099;-82
2024/03/22 13:47:04;;;;;;;3.50;2.22;;;;;;;16.90;42.38;99787.16;10435929;28;20057;-83
2024/03/22 13:52:05;;;;;;;5.80;1.85;;;;;;;16.74;42.01;99785.06;10418231;28;20052;-83
2024/03/22 13:57:06;;;;;;;3.35;1.70;;;;;;;16.85;42.23;99761.16;10403014;28;20601;-82
2024/03/22 14:02:07;;;;;;;4.97;2.13;;;;;;;17.03;41.81;99759.56;10406517;28;20140;-82
2024/03/22 14:07:09;;;;;;;3.30;1.95;;;;;;;16.94;41.88;99747.16;10432566;28;20048;-82
2024/03/22 14:12:10;;;;;;;5.90;2.45;;;;;;;16.93;41.93;99731.44;10418525;28;20136;-82
2024/03/22 14:17:11;;;;;;;4.47;2.53;;;;;;;16.60;42.66;99729.13;10428012;28;20068;-82
2024/03/22 14:22:12;;;;;;;6.95;3.05;;;;;;;16.46;43.07;99718.94;10439445;28;20481;-82
2024/03/22 14:27:14;;;;;;;6.05;3.25;;;;;;;16.60;42.72;99700.94;10407617;28;20084;-82
2024/03/22 14:32:15;;;;;;;6.13;3.28;;;;;;;16.89;42.58;99701.00;10438274;28;20063;-82
2024/03/22 14:37:16;;;;;;;4.57;2.60;;;;;;;17.72;42.14;99696.81;10429264;28;20394;-82
2024/03/22 14:42:18;;;;;;;6.70;3.38;;;;;;;18.03;41.50;99672.78;10425508;28;20052;-82
2024/03/22 14:47:19;;;;;;;5.25;2.80;;;;;;;17.91;41.23;99663.34;10434995;28;20061;-82
2024/03/22 14:52:21;;;;;;;4.18;2.53;;;;;;;17.49;41.26;99657.59;10433815;28;20045;-82
2024/03/22 14:57:22;;;;;;;7.45;2.13;;;;;;;17.23;41.32;99659.13;10424147;28;20977;-82
2024/03/22 15:02:23;;;;;;;4.35;2.15;;;;;;;17.23;40.44;99652.03;10418408;28;20139;-82
2024/03/22 15:07:25;;;;;;;5.15;2.45;;;;;;;17.32;40.95;99632.72;10420693;28;20063;-82
2024/03/22 15:12:26;;;;;;;5.28;2.60;;;;;;;17.10;41.23;99629.53;10449361;28;20533;-82
2024/03/22 15:17:27;;;;;;;4.93;2.63;;;;;;;17.03;41.19;99624.81;10432349;28;20480;-81
2024/03/22 15:22:28;;;;;;;6.57;2.60;;;;;;;16.92;41.40;99616.16;10417703;28;20052;-81
2024/03/22 15:27:29;;;;;;;3.58;1.95;;;;;;;16.61;40.22;99604.09;10399752;28;20056;-81
2024/03/22 15:32:30;;;;;;;4.45;2.13;;;;;;;16.59;41.30;99592.81;10398993;28;20505;-81
2024/03/22 15:37:31;;;;;;;5.70;2.90;;;;;;;16.73;41.13;99595.88;10415732;28;20061;-81
2024/03/22 15:42:32;;;;;;;4.43;2.28;;;;;;;17.18;40.72;99585.53;10422977;28;20410;-81
2024/03/22 15:47:34;;;;;;;4.28;2.30;;;;;;;17.44;40.58;99572.59;10416359;28;20073;-81
2024/03/22 15:52:35;;;;;;;8.15;2.67;;;;;;;17.42;40.36;99564.81;10415597;28;20052;-82
2024/03/22 15:57:36;;;;;;;4.20;2.17;;;;;;;17.35;40.46;99562.88;10448647;28;20092;-82
2024/03/22 16:02:37;;;;;;;4.57;2.22;;;;;;;17.31;40.66;99559.66;10431679;28;20541;-81
2024/03/22 16:07:38;;;;;;;6.47;3.40;;;;;;;17.32;40.62;99556.06;10438368;28;20152;-81
2024/03/22 16:12:40;;;;;;;5.10;2.38;;;;;;;17.18;40.85;99553.84;10430528;28;20501;-81
2024/03/22 16:17:42;;;;;;;4.30;2.28;;;;;;;17.12;41.04;99554.41;10415273;28;20500;-81
2024/03/22 16:22:45;;;;;;;4.35;2.40;;;;;;;17.18;40.95;99537.97;10445840;28;20052;-82
2024/03/22 16:27:47;;;;;;;4.35;2.20;;;;;;;17.18;41.16;99542.47;10450134;28;20095;-82
2024/03/22 16:32:49;;;;;;;4.22;1.92;;;;;;;17.06;40.85;99544.41;10434088;28;20095;-82
2024/03/22 16:37:51;;;;;;;4.35;2.10;;;;;;;16.88;40.63;99544.31;10428112;28;20102;-82
2024/03/22 16:42:52;;;;;;;4.63;1.88;;;;;;;16.77;40.43;99536.50;10412812;28;20143;-82
2024/03/22 16:47:53;;;;;;;4.85;1.50;;;;;;;16.56;40.34;99537.66;10414218;28;20540;-82
2024/03/22 16:52:54;;;;;;;3.03;1.50;;;;;;;16.47;40.41;99523.47;10413739;28;20076;-81
2024/03/22 16:57:59;;;;;;;3.03;1.60;;;;;;;16.36;40.25;99512.19;10428799;28;20136;-82
2024/03/22 17:03:00;;;;;;;3.65;1.58;;;;;;;16.34;40.68;99508.84;10412497;28;20056;-82
2024/03/22 17:08:02;;;;;;;3.47;1.65;;;;;;;16.30;40.84;99512.75;10410745;28;20175;-82
2024/03/22 17:13:04;;;;;;;2.55;1.20;;;;;;;16.04;40.53;99509.81;10413968;28;20067;-82
2024/03/22 17:18:05;;;;;;;3.17;1.40;;;;;;;15.92;40.43;99509.06;10437267;28;20477;-83
2024/03/22 17:23:09;;;;;;;2.35;1.15;;;;;;;15.77;40.42;99510.44;10446099;28;20106;-83
2024/03/22 17:28:10;;;;;;;9.95;1.55;;;;;;;15.63;40.46;99502.91;10398844;28;20084;-82
2024/03/22 17:33:11;;;;;;;4.15;1.20;;;;;;;15.45;40.73;99499.16;10416666;28;20068;-82
2024/03/22 17:38:12;;;;;;;3.33;1.83;;;;;;;15.20;41.86;99503.09;10427959;28;20099;-82
2024/03/22 17:43:14;;;;;;;2.30;1.25;;;;;;;14.90;42.11;99496.97;10420709;28;20051;-82
2024/03/22 17:48:15;;;;;;;3.22;1.30;;;;;;;14.67;42.48;99488.34;10425740;28;20147;-83
2024/03/22 17:53:17;;;;;;;1.92;1.23;;;;;;;14.49;42.85;99490.69;10422209;28;20083;-81
2024/03/22 17:58:18;;;;;;;2.90;1.35;;;;;;;14.27;43.02;99477.63;10451647;28;20064;-82
2024/03/22 18:03:19;;;;;;;4.93;1.60;;;;;;;14.09;43.68;99473.88;10419289;28;20049;-85
2024/03/22 18:08:20;;;;;;;4.00;1.70;;;;;;;13.87;44.18;99473.94;10454367;28;20083;-85
2024/03/22 18:13:22;;;;;;;2.20;1.20;;;;;;;13.73;44.51;99468.94;10436048;28;20052;-85
2024/03/22 18:18:24;;;;;;;5.25;1.30;;;;;;;13.57;45.23;99465.88;10419700;28;20135;-85
2024/03/22 18:23:28;;;;;;;2.22;1.30;;;;;;;13.36;45.79;99463.09;10441054;28;20059;-85
2024/03/22 18:28:29;;;;;;;1.20;1.10;;;;;;;13.18;46.29;99461.91;10419120;28;20055;-85
2024/03/22 18:33:35;;;;;;;3.17;1.40;;;;;;;13.07;46.51;99445.34;10440605;28;20610;-85
2024/03/22 18:38:37;;;;;;;3.25;1.40;;;;;;;13.00;46.83;99454.63;10423969;28;20216;-85
2024/03/22 18:43:38;;;;;;;3.28;1.40;;;;;;;12.96;47.02;99444.34;10417961;28;20045;-85
2024/03/22 18:48:40;;;;;;;2.40;1.35;;;;;;;12.92;47.09;99448.16;10450789;28;20436;-85
2024/03/22 18:53:43;;;;;;;1.67;1.20;;;;;;;12.83;47.58;99438.41;10435995;28;20179;-85
2024/03/22 18:58:45;;;;;;;2.25;1.40;;;;;;;12.66;48.00;99446.69;10433348;28;20441;-85
2024/03/22 19:03:46;;;;;;;3.42;1.70;;;;;;;12.48;48.33;99432.34;10437580;28;20187;-85
2024/03/22 19:08:47;;;;;;;4.45;2.08;;;;;;;12.46;48.46;99434.25;10416722;28;20052;-85
2024/03/22 19:13:48;;;;;;;2.53;1.58;;;;;;;12.50;48.59;99425.22;10436279;28;20498;-85
2024/03/22 19:18:50;;;;;;;2.38;1.50;;;;;;;12.54;48.47;99421.41;10419174;28;20094;-85
2024/03/22 19:23:52;;;;;;;5.05;2.28;;;;;;;12.54;48.76;99425.81;10426660;28;20064;-85
2024/03/22 19:28:53;;;;;;;2.92;1.60;;;;;;;12.50;49.03;99419.97;10401383;28;20080;-85
2024/03/22 19:33:54;;;;;;;1.58;1.30;;;;;;;12.33;49.28;99419.56;10418250;28;20140;-85
2024/03/22 19:38:57;;;;;;;5.10;2.03;;;;;;;12.14;49.70;99420.91;10400331;28;20049;-84
2024/03/22 19:43:58;;;;;;;3.53;1.75;;;;;;;11.81;50.00;99430.41;10430556;28;20135;-84
2024/03/22 19:48:59;;;;;;;3.42;1.73;;;;;;;11.64;50.57;99422.94;10430667;28;20063;-84
2024/03/22 19:54:00;;;;;;;10.77;3.08;;;;;;;11.88;50.45;99421.16;10431504;28;20496;-84
2024/03/22 19:59:01;;;;;;;3.53;2.00;;;;;;;11.85;50.50;99421.38;10406231;28;20060;-84
2024/03/22 20:04:02;;;;;;;7.82;3.30;;;;;;;11.75;51.05;99422.97;10430964;28;20080;-83
2024/03/22 20:09:04;;;;;;;3.97;1.80;;;;;;;11.78;50.94;99426.25;10415741;28;20106;-84
2024/03/22 20:14:05;;;;;;;6.20;3.30;;;;;;;11.68;51.41;99430.44;10428636;28;20528;-84
2024/03/22 20:19:06;;;;;;;7.53;3.70;;;;;;;11.72;51.60;99438.94;10397271;28;20052;-84
2024/03/22 20:24:07;;;;;;;8.07;3.90;;;;;;;11.72;52.38;99441.56;10430215;28;20045;-83
2024/03/22 20:29:08;;;;;;;6.47;3.90;;;;;;;11.69;52.48;99434.75;10429482;28;20076;-84
2024/03/22 20:34:11;;;;;;;10.00;5.15;;;;;;;11.59;53.24;99435.50;10415235;28;20148;-84
2024/03/22 20:39:12;;;;;;;11.65;5.45;;;;;;;11.49;54.21;99434.50;10420697;28;20147;-85
2024/03/22 20:44:15;;;;;;;7.78;4.22;;;;;;;11.39;54.37;99434.31;10413244;28;21027;-83
2024/03/22 20:49:19;;;;;;;12.90;6.15;;;;;;;11.24;55.11;99438.00;10363761;28;20071;-84
2024/03/22 20:54:24;;;;;;;15.77;6.78;;;;;;;11.10;55.20;99431.13;10404134;28;20544;-85
2024/03/22 20:59:26;;;;;;;13.10;5.70;;;;;;;11.04;55.61;99436.78;10402272;28;20056;-84
2024/03/22 21:04:28;;;;;;;13.70;7.10;;;;;;;10.93;55.78;99435.84;10411982;28;20103;-84
2024/03/22 21:09:30;;;;;;;12.15;6.63;;;;;;;10.74;56.54;99438.88;10394254;28;20131;-84
2024/03/22 21:14:34;;;;;;;13.52;5.70;;;;;;;10.67;56.81;99435.00;10395704;28;20067;-84
2024/03/22 21:19:39;;;;;;;20.45;7.50;;;;;;;10.58;57.16;99433.00;10396566;28;20084;-84
2024/03/22 21:24:41;;;;;;;16.25;7.63;;;;;;;10.59;57.04;99410.28;10403056;28;20053;-84
2024/03/22 21:29:44;;;;;;;12.10;7.25;;;;;;;10.55;57.28;99407.06;10403999;28;20443;-84
2024/03/22 21:34:47;;;;;;;17.20;7.45;;;;;;;10.46;57.53;99405.09;10395989;28;20040;-84
2024/03/22 21:39:54;;;;;;;15.52;6.95;;;;;;;10.42;57.55;99403.59;10430100;28;20053;-84
2024/03/22 21:44:57;;;;;;;15.38;7.75;;;;;;;10.26;57.66;99395.94;10419570;28;20099;-83
2024/03/22 21:49:59;;;;;;;16.25;6.95;;;;;;;10.25;57.92;99386.44;10435048;28;20048;-84
2024/03/22 21:55:01;;;;;;;17.33;7.75;;;;;;;10.32;57.83;99381.63;10419591;28;20063;-83
2024/03/22 22:00:06;;;;;;;14.75;6.97;;;;;;;10.30;58.09;99380.88;10428232;28;20461;-83
2024/03/22 22:05:09;;;;;;;17.35;8.80;;;;;;;10.11;58.39;99373.47;10427681;28;20139;-84
2024/03/22 22:10:11;;;;;;;13.20;6.95;;;;;;;10.07;58.41;99376.38;10402365;28;20061;-83
2024/03/22 22:15:13;;;;;;;13.27;6.53;;;;;;;10.08;58.51;99367.59;10386556;28;20064;-84
2024/03/22 22:20:18;;;;;;;12.95;6.82;;;;;;;9.97;58.50;99360.47;10417259;28;20132;-84
2024/03/22 22:25:20;;;;;;;16.52;7.45;;;;;;;9.95;58.69;99356.28;10420347;28;20091;-83
2024/03/22 22:30:22;;;;;;;15.35;7.85;;;;;;;9.94;58.81;99333.72;10402424;28;20414;-83
2024/03/22 22:35:24;;;;;;;16.77;8.05;;;;;;;9.78;58.98;99323.44;10400803;28;20080;-84
2024/03/22 22:40:26;;;;;;;14.82;7.85;;;;;;;9.67;59.05;99314.66;10410073;28;20139;-83
2024/03/22 22:45:28;;;;;;;15.25;7.55;;;;;;;9.53;59.29;99307.69;10448694;28;20155;-84
2024/03/22 22:50:30;;;;;;;13.63;7.55;;;;;;;9.44;59.72;99295.25;10382147;28;20554;-83
2024/03/22 22:55:32;;;;;;;17.67;7.40;;;;;;;9.45;59.69;99273.41;10425152;28;20079;-84
2024/03/22 23:00:36;;;;;;;15.35;7.53;;;;;;;9.40;59.76;99262.47;10415551;28;20135;-84
2024/03/22 23:05:38;;;;;;;15.02;7.80;;;;;;;9.14;59.85;99252.84;10417223;28;20934;-83
2024/03/22 23:10:40;;;;;;;17.75;8.63;;;;;;;8.91;60.48;99232.66;10399300;28;20053;-84
2024/03/22 23:15:42;;;;;;;17.75;8.93;;;;;;;8.78;60.56;99237.78;10415490;28;20048;-83